createdAt,value
2019-01-29T00:00:35.274Z,96.331787
2019-01-29T00:01:44.813Z,96.228027
2019-01-29T00:02:54.326Z,95.806885
2019-01-29T00:04:03.859Z,95.916748
2019-01-29T00:05:13.367Z,96.124268
2019-01-29T00:06:22.879Z,96.228027
2019-01-29T00:07:32.425Z,96.020508
2019-01-29T00:08:41.946Z,96.124268
2019-01-29T00:09:51.506Z,95.916748
2019-01-29T00:11:01.031Z,95.703125
2019-01-29T00:12:10.549Z,95.806885
2019-01-29T00:13:20.068Z,95.806885
2019-01-29T00:14:29.593Z,95.599365
2019-01-29T00:15:39.105Z,95.391846
2019-01-29T00:16:48.641Z,95.184326
2019-01-29T00:17:58.161Z,94.866943
2019-01-29T00:19:07.696Z,94.659424
2019-01-29T00:20:17.208Z,94.555664
2019-01-29T00:21:26.713Z,94.134521
2019-01-29T00:22:36.231Z,94.134521
2019-01-29T00:23:45.732Z,93.713379
2019-01-29T00:24:55.245Z,93.713379
2019-01-29T00:26:04.765Z,93.927002
2019-01-29T00:27:14.300Z,93.29834
2019-01-29T00:28:23.829Z,92.456055
2019-01-29T00:29:33.340Z,92.144775
2019-01-29T00:30:42.875Z,92.352295
2019-01-29T00:31:52.422Z,91.619873
2019-01-29T00:33:02.933Z,91.308594
2019-01-29T00:34:12.463Z,90.887451
2019-01-29T00:35:22.058Z,90.576172
2019-01-29T00:36:31.511Z,90.887451
2019-01-29T00:37:41.054Z,90.887451
2019-01-29T00:38:50.586Z,90.362549
2019-01-29T00:40:00.267Z,90.576172
2019-01-29T00:41:09.647Z,89.84375
2019-01-29T00:42:19.181Z,89.94751
2019-01-29T00:43:28.701Z,89.630127
2019-01-29T00:44:38.212Z,89.733887
2019-01-29T00:45:47.741Z,90.258789
2019-01-29T00:46:57.302Z,90.155029
2019-01-29T00:48:06.831Z,90.472412
2019-01-29T00:49:16.350Z,90.472412
2019-01-29T00:50:25.863Z,89.105225
2019-01-29T00:51:35.367Z,89.215088
2019-01-29T00:52:44.893Z,88.897705
2019-01-29T00:53:55.429Z,88.586426
2019-01-29T00:55:04.949Z,88.165283
2019-01-29T00:56:14.455Z,88.690186
2019-01-29T00:57:24.005Z,88.372803
2019-01-29T00:58:33.521Z,88.061523
2019-01-29T00:59:43.049Z,87.957764
2019-01-29T01:00:52.576Z,87.854004
2019-01-29T01:02:02.083Z,87.854004
2019-01-29T01:03:11.620Z,88.098145
2019-01-29T01:04:21.137Z,88.208008
2019-01-29T01:05:30.657Z,87.469482
2019-01-29T01:06:40.179Z,86.846924
2019-01-29T01:07:49.713Z,86.846924
2019-01-29T01:08:59.255Z,87.158203
2019-01-29T01:10:08.765Z,86.950684
2019-01-29T01:11:18.288Z,87.365723
2019-01-29T01:12:27.845Z,86.950684
2019-01-29T01:13:37.367Z,86.846924
2019-01-29T01:14:46.939Z,87.091064
2019-01-29T01:15:56.466Z,86.883545
2019-01-29T01:17:05.962Z,86.883545
2019-01-29T01:18:15.498Z,86.779785
2019-01-29T01:19:25.039Z,86.462402
2019-01-29T01:20:34.548Z,86.462402
2019-01-29T01:21:44.072Z,86.566162
2019-01-29T01:22:53.592Z,86.676025
2019-01-29T01:24:03.117Z,86.358643
2019-01-29T01:25:12.646Z,86.883545
2019-01-29T01:26:22.183Z,86.816406
2019-01-29T01:27:31.714Z,86.676025
2019-01-29T01:28:41.240Z,86.676025
2019-01-29T01:29:50.757Z,86.254883
2019-01-29T01:31:00.352Z,86.566162
2019-01-29T01:32:09.951Z,86.816406
2019-01-29T01:33:19.559Z,86.401367
2019-01-29T01:34:29.207Z,86.712646
2019-01-29T01:35:38.823Z,86.358643
2019-01-29T01:36:48.431Z,86.358643
2019-01-29T01:37:58.120Z,86.676025
2019-01-29T01:39:07.834Z,86.566162
2019-01-29T01:40:17.470Z,86.358643
2019-01-29T01:41:27.197Z,86.047363
2019-01-29T01:42:36.832Z,86.047363
2019-01-29T01:43:46.401Z,86.047363
2019-01-29T01:44:55.975Z,85.72998
2019-01-29T01:46:05.570Z,85.980225
2019-01-29T01:47:15.226Z,85.662842
2019-01-29T01:48:24.835Z,85.559082
2019-01-29T01:49:34.395Z,85.247803
2019-01-29T01:50:44.011Z,84.997559
2019-01-29T01:51:53.584Z,84.93042
2019-01-29T01:53:03.192Z,85.455322
2019-01-29T01:54:12.760Z,85.03418
2019-01-29T01:55:22.322Z,85.247803
2019-01-29T01:56:31.895Z,85.247803
2019-01-29T01:57:42.544Z,84.93042
2019-01-29T01:58:52.191Z,84.82666
2019-01-29T02:00:01.807Z,84.7229
2019-01-29T02:01:11.464Z,85.455322
2019-01-29T02:02:21.065Z,85.455322
2019-01-29T02:03:30.649Z,85.284424
2019-01-29T02:04:40.226Z,85.705566
2019-01-29T02:05:49.841Z,85.076904
2019-01-29T02:06:59.387Z,84.759521
2019-01-29T02:08:09.099Z,84.405518
2019-01-29T02:09:18.699Z,84.197998
2019-01-29T02:10:28.327Z,84.509277
2019-01-29T02:11:37.948Z,84.552002
2019-01-29T02:12:47.707Z,84.442139
2019-01-29T02:13:57.404Z,84.759521
2019-01-29T02:15:07.088Z,84.967041
2019-01-29T02:16:16.687Z,84.863281
2019-01-29T02:17:26.327Z,85.705566
2019-01-29T02:18:36.037Z,85.076904
2019-01-29T02:19:45.622Z,84.967041
2019-01-29T02:20:55.204Z,85.388184
2019-01-29T02:22:04.874Z,85.180664
2019-01-29T02:23:14.761Z,85.284424
2019-01-29T02:24:24.385Z,85.705566
2019-01-29T02:25:33.999Z,85.491943
2019-01-29T02:26:43.644Z,85.180664
2019-01-29T02:27:53.306Z,85.601807
2019-01-29T02:29:02.965Z,85.705566
2019-01-29T02:30:12.635Z,85.180664
2019-01-29T02:31:22.196Z,84.863281
2019-01-29T02:32:31.809Z,84.967041
2019-01-29T02:33:41.449Z,84.759521
2019-01-29T02:34:51.030Z,84.759521
2019-01-29T02:36:00.608Z,84.863281
2019-01-29T02:37:10.324Z,84.967041
2019-01-29T02:38:19.884Z,84.863281
2019-01-29T02:39:29.589Z,84.863281
2019-01-29T02:40:39.214Z,85.284424
2019-01-29T02:41:48.952Z,84.863281
2019-01-29T02:42:58.528Z,84.759521
2019-01-29T02:44:08.178Z,84.759521
2019-01-29T02:45:17.766Z,84.863281
2019-01-29T02:46:27.386Z,84.759521
2019-01-29T02:47:36.965Z,84.759521
2019-01-29T02:48:46.583Z,84.759521
2019-01-29T02:49:56.211Z,83.92334
2019-01-29T02:51:05.814Z,84.442139
2019-01-29T02:52:15.453Z,84.863281
2019-01-29T02:53:25.107Z,84.338379
2019-01-29T02:54:35.906Z,84.655762
2019-01-29T02:55:45.562Z,84.0271
2019-01-29T02:56:55.199Z,84.094238
2019-01-29T02:58:04.957Z,84.301758
2019-01-29T02:59:14.690Z,84.094238
2019-01-29T03:00:24.310Z,84.197998
2019-01-29T03:01:33.967Z,84.094238
2019-01-29T03:02:43.673Z,83.880615
2019-01-29T03:03:53.389Z,83.673096
2019-01-29T03:05:02.966Z,83.673096
2019-01-29T03:06:12.539Z,83.251953
2019-01-29T03:07:22.158Z,83.465576
2019-01-29T03:08:31.781Z,83.673096
2019-01-29T03:09:42.386Z,83.569336
2019-01-29T03:10:52.058Z,83.984375
2019-01-29T03:12:01.722Z,83.776855
2019-01-29T03:13:11.388Z,84.094238
2019-01-29T03:14:21.054Z,84.094238
2019-01-29T03:15:30.689Z,83.984375
2019-01-29T03:16:40.489Z,84.094238
2019-01-29T03:17:50.145Z,83.984375
2019-01-29T03:18:59.864Z,84.094238
2019-01-29T03:20:09.582Z,84.301758
2019-01-29T03:21:19.200Z,83.984375
2019-01-29T03:22:28.807Z,83.569336
2019-01-29T03:23:38.474Z,83.984375
2019-01-29T03:24:48.292Z,83.880615
2019-01-29T03:25:57.979Z,84.301758
2019-01-29T03:27:07.706Z,83.569336
2019-01-29T03:28:17.373Z,83.776855
2019-01-29T03:29:27.024Z,83.984375
2019-01-29T03:30:36.655Z,83.984375
2019-01-29T03:31:46.379Z,84.094238
2019-01-29T03:32:56.070Z,83.984375
2019-01-29T03:34:05.759Z,84.094238
2019-01-29T03:35:15.375Z,84.197998
2019-01-29T03:36:25.022Z,84.094238
2019-01-29T03:37:34.836Z,84.094238
2019-01-29T03:38:44.533Z,84.509277
2019-01-29T03:39:54.113Z,84.405518
2019-01-29T03:41:03.699Z,84.442139
2019-01-29T03:42:13.338Z,84.655762
2019-01-29T03:43:22.966Z,84.863281
2019-01-29T03:44:33.655Z,84.442139
2019-01-29T03:45:43.235Z,84.552002
2019-01-29T03:46:53.005Z,84.442139
2019-01-29T03:48:02.586Z,84.655762
2019-01-29T03:49:12.178Z,84.759521
2019-01-29T03:50:21.788Z,84.863281
2019-01-29T03:51:31.499Z,85.284424
2019-01-29T03:52:41.125Z,85.388184
2019-01-29T03:53:50.729Z,85.601807
2019-01-29T03:55:00.261Z,85.601807
2019-01-29T03:56:09.750Z,85.601807
2019-01-29T03:57:19.271Z,85.601807
2019-01-29T03:58:28.808Z,85.491943
2019-01-29T03:59:38.358Z,85.601807
2019-01-29T04:00:47.876Z,85.137939
2019-01-29T04:01:57.394Z,85.03418
2019-01-29T04:03:06.926Z,84.93042
2019-01-29T04:04:16.460Z,84.82666
2019-01-29T04:05:25.991Z,84.82666
2019-01-29T04:06:35.511Z,84.509277
2019-01-29T04:07:45.040Z,84.7229
2019-01-29T04:08:54.572Z,84.405518
2019-01-29T04:10:04.133Z,84.7229
2019-01-29T04:11:13.649Z,84.509277
2019-01-29T04:12:23.161Z,84.7229
2019-01-29T04:13:32.689Z,84.619141
2019-01-29T04:14:42.214Z,84.7229
2019-01-29T04:15:51.730Z,85.03418
2019-01-29T04:17:01.253Z,84.82666
2019-01-29T04:18:10.791Z,85.137939
2019-01-29T04:19:20.364Z,85.03418
2019-01-29T04:20:29.875Z,85.137939
2019-01-29T04:21:39.398Z,84.82666
2019-01-29T04:22:48.910Z,84.265137
2019-01-29T04:23:58.421Z,84.472656
2019-01-29T04:25:07.956Z,84.265137
2019-01-29T04:26:17.492Z,84.161377
2019-01-29T04:27:27.009Z,84.576416
2019-01-29T04:28:36.523Z,84.576416
2019-01-29T04:29:46.059Z,84.680176
2019-01-29T04:30:55.567Z,84.576416
2019-01-29T04:32:05.124Z,84.680176
2019-01-29T04:33:14.654Z,84.680176
2019-01-29T04:34:24.187Z,84.680176
2019-01-29T04:35:33.714Z,84.576416
2019-01-29T04:36:43.232Z,84.576416
2019-01-29T04:37:52.765Z,84.680176
2019-01-29T04:39:02.302Z,84.893799
2019-01-29T04:40:11.842Z,85.205078
2019-01-29T04:41:21.361Z,84.893799
2019-01-29T04:42:30.873Z,85.101318
2019-01-29T04:43:40.410Z,85.101318
2019-01-29T04:44:49.940Z,85.308838
2019-01-29T04:45:59.459Z,85.205078
2019-01-29T04:47:08.983Z,85.205078
2019-01-29T04:48:18.508Z,85.522461
2019-01-29T04:49:28.039Z,85.522461
2019-01-29T04:50:37.573Z,85.522461
2019-01-29T04:51:47.092Z,85.626221
2019-01-29T04:52:56.621Z,86.047363
2019-01-29T04:54:06.129Z,85.9375
2019-01-29T04:55:15.686Z,85.522461
2019-01-29T04:56:25.195Z,85.9375
2019-01-29T04:57:34.714Z,86.047363
2019-01-29T04:58:44.240Z,85.83374
2019-01-29T04:59:53.798Z,85.83374
2019-01-29T05:01:03.322Z,85.72998
2019-01-29T05:02:12.848Z,85.83374
2019-01-29T05:03:22.356Z,85.9375
2019-01-29T05:04:31.939Z,85.72998
2019-01-29T05:05:41.479Z,85.9375
2019-01-29T05:06:50.979Z,86.254883
2019-01-29T05:08:00.513Z,85.72998
2019-01-29T05:09:10.038Z,85.980225
2019-01-29T05:10:19.571Z,86.505127
2019-01-29T05:11:29.089Z,86.291504
2019-01-29T05:12:38.702Z,86.187744
2019-01-29T05:13:48.221Z,86.187744
2019-01-29T05:14:57.755Z,86.187744
2019-01-29T05:16:07.278Z,86.291504
2019-01-29T05:17:16.810Z,86.083984
2019-01-29T05:18:26.330Z,85.72998
2019-01-29T05:19:36.850Z,86.047363
2019-01-29T05:20:46.363Z,86.254883
2019-01-29T05:21:55.894Z,86.291504
2019-01-29T05:23:05.489Z,86.151123
2019-01-29T05:24:15.018Z,86.254883
2019-01-29T05:25:24.587Z,87.030029
2019-01-29T05:26:34.227Z,86.608887
2019-01-29T05:27:43.773Z,86.505127
2019-01-29T05:28:53.287Z,86.608887
2019-01-29T05:30:02.814Z,86.712646
2019-01-29T05:31:12.349Z,86.712646
2019-01-29T05:32:21.871Z,86.608887
2019-01-29T05:33:31.412Z,86.712646
2019-01-29T05:34:40.932Z,86.816406
2019-01-29T05:35:50.447Z,86.816406
2019-01-29T05:36:59.951Z,87.237549
2019-01-29T05:38:09.462Z,87.133789
2019-01-29T05:39:18.966Z,87.030029
2019-01-29T05:40:28.499Z,87.030029
2019-01-29T05:41:38.032Z,87.237549
2019-01-29T05:42:47.589Z,87.133789
2019-01-29T05:43:57.093Z,87.133789
2019-01-29T05:45:06.633Z,87.133789
2019-01-29T05:46:16.186Z,87.133789
2019-01-29T05:47:25.704Z,87.237549
2019-01-29T05:48:35.221Z,87.237549
2019-01-29T05:49:44.745Z,87.341309
2019-01-29T05:50:54.267Z,87.445068
2019-01-29T05:52:03.867Z,87.237549
2019-01-29T05:53:13.380Z,87.445068
2019-01-29T05:54:22.897Z,87.445068
2019-01-29T05:55:32.420Z,87.445068
2019-01-29T05:56:41.971Z,87.445068
2019-01-29T05:57:52.473Z,87.445068
2019-01-29T05:59:02.015Z,87.237549
2019-01-29T06:00:11.548Z,87.445068
2019-01-29T06:01:21.077Z,87.554932
2019-01-29T06:02:30.602Z,87.658691
2019-01-29T06:03:40.119Z,87.133789
2019-01-29T06:04:49.629Z,87.554932
2019-01-29T06:05:59.152Z,87.762451
2019-01-29T06:07:08.658Z,87.237549
2019-01-29T06:08:18.179Z,87.554932
2019-01-29T06:09:27.740Z,87.658691
2019-01-29T06:10:37.265Z,87.658691
2019-01-29T06:11:46.789Z,87.341309
2019-01-29T06:12:56.310Z,87.341309
2019-01-29T06:14:05.861Z,87.554932
2019-01-29T06:15:15.382Z,87.341309
2019-01-29T06:16:24.938Z,87.133789
2019-01-29T06:17:34.485Z,87.237549
2019-01-29T06:18:44.005Z,87.341309
2019-01-29T06:19:53.547Z,87.091064
2019-01-29T06:21:03.108Z,87.237549
2019-01-29T06:22:12.704Z,86.987305
2019-01-29T06:23:22.230Z,86.779785
2019-01-29T06:24:31.752Z,86.883545
2019-01-29T06:25:41.274Z,86.883545
2019-01-29T06:26:50.798Z,86.779785
2019-01-29T06:28:00.315Z,86.779785
2019-01-29T06:29:09.871Z,86.676025
2019-01-29T06:30:19.385Z,86.883545
2019-01-29T06:31:28.904Z,86.779785
2019-01-29T06:32:38.414Z,86.883545
2019-01-29T06:33:47.927Z,86.883545
2019-01-29T06:34:57.442Z,86.676025
2019-01-29T06:36:06.974Z,86.566162
2019-01-29T06:37:16.490Z,86.676025
2019-01-29T06:38:26.015Z,86.566162
2019-01-29T06:39:35.619Z,86.358643
2019-01-29T06:40:45.083Z,86.462402
2019-01-29T06:41:54.615Z,86.047363
2019-01-29T06:43:04.139Z,86.254883
2019-01-29T06:44:13.665Z,86.358643
2019-01-29T06:45:23.208Z,86.254883
2019-01-29T06:46:32.740Z,86.462402
2019-01-29T06:47:42.307Z,86.462402
2019-01-29T06:48:51.800Z,86.358643
2019-01-29T06:50:01.320Z,86.047363
2019-01-29T06:51:10.857Z,86.047363
2019-01-29T06:52:20.390Z,86.254883
2019-01-29T06:53:29.910Z,85.9375
2019-01-29T06:54:39.453Z,85.479736
2019-01-29T06:55:48.983Z,85.479736
2019-01-29T06:56:58.516Z,85.5896
2019-01-29T06:58:08.034Z,84.960938
2019-01-29T06:59:17.569Z,84.747314
2019-01-29T07:00:27.097Z,85.064697
2019-01-29T07:01:36.640Z,85.064697
2019-01-29T07:02:46.195Z,84.851074
2019-01-29T07:03:55.726Z,85.272217
2019-01-29T07:05:05.253Z,84.960938
2019-01-29T07:06:14.761Z,84.747314
2019-01-29T07:07:24.279Z,84.747314
2019-01-29T07:08:33.795Z,84.747314
2019-01-29T07:09:43.349Z,84.643555
2019-01-29T07:10:52.884Z,84.643555
2019-01-29T07:12:02.448Z,84.332275
2019-01-29T07:13:11.969Z,84.539795
2019-01-29T07:14:21.481Z,84.539795
2019-01-29T07:15:30.994Z,84.222412
2019-01-29T07:16:40.555Z,84.539795
2019-01-29T07:17:50.070Z,84.643555
2019-01-29T07:18:59.600Z,84.539795
2019-01-29T07:20:09.123Z,84.436035
2019-01-29T07:21:18.692Z,84.747314
2019-01-29T07:22:28.220Z,84.960938
2019-01-29T07:23:37.751Z,85.168457
2019-01-29T07:24:47.272Z,85.168457
2019-01-29T07:25:56.806Z,85.375977
2019-01-29T07:27:06.338Z,85.168457
2019-01-29T07:28:15.843Z,85.272217
2019-01-29T07:29:25.352Z,85.5896
2019-01-29T07:30:34.872Z,85.479736
2019-01-29T07:31:44.451Z,84.918213
2019-01-29T07:32:53.983Z,85.131836
2019-01-29T07:34:03.516Z,84.814453
2019-01-29T07:35:13.027Z,84.814453
2019-01-29T07:36:23.572Z,85.021973
2019-01-29T07:37:33.108Z,84.503174
2019-01-29T07:38:42.624Z,84.606934
2019-01-29T07:39:52.142Z,84.289551
2019-01-29T07:41:01.660Z,84.393311
2019-01-29T07:42:11.201Z,83.978271
2019-01-29T07:43:20.718Z,83.770752
2019-01-29T07:44:30.267Z,84.185791
2019-01-29T07:45:39.788Z,83.660889
2019-01-29T07:46:49.314Z,83.660889
2019-01-29T07:47:58.831Z,83.453369
2019-01-29T07:49:08.352Z,83.660889
2019-01-29T07:50:17.871Z,83.453369
2019-01-29T07:51:27.387Z,83.24585
2019-01-29T07:52:36.924Z,83.557129
2019-01-29T07:53:46.428Z,82.928467
2019-01-29T07:54:55.952Z,82.403564
2019-01-29T07:56:05.472Z,82.470703
2019-01-29T07:57:15.005Z,82.580566
2019-01-29T07:58:24.528Z,82.580566
2019-01-29T07:59:34.049Z,82.366943
2019-01-29T08:00:43.575Z,81.848145
2019-01-29T08:01:53.139Z,81.738281
2019-01-29T08:03:02.686Z,81.738281
2019-01-29T08:04:12.197Z,81.738281
2019-01-29T08:05:21.723Z,81.915283
2019-01-29T08:06:31.251Z,81.5979
2019-01-29T08:07:40.840Z,81.80542
2019-01-29T08:08:50.424Z,81.182861
2019-01-29T08:09:59.953Z,80.969238
2019-01-29T08:11:09.468Z,81.182861
2019-01-29T08:12:19.041Z,81.072998
2019-01-29T08:13:28.540Z,80.865479
2019-01-29T08:14:38.078Z,81.286621
2019-01-29T08:15:47.629Z,80.865479
2019-01-29T08:16:57.175Z,80.657959
2019-01-29T08:18:06.696Z,80.554199
2019-01-29T08:19:16.207Z,80.34668
2019-01-29T08:20:26.729Z,80.236816
2019-01-29T08:21:36.255Z,80.236816
2019-01-29T08:22:45.788Z,80.450439
2019-01-29T08:23:55.309Z,80.133057
2019-01-29T08:25:04.807Z,80.236816
2019-01-29T08:26:14.315Z,80.029297
2019-01-29T08:27:23.841Z,80.657959
2019-01-29T08:28:33.352Z,80.133057
2019-01-29T08:29:42.858Z,80.029297
2019-01-29T08:30:52.380Z,79.992676
2019-01-29T08:32:01.915Z,80.200195
2019-01-29T08:33:11.428Z,79.785156
2019-01-29T08:34:20.949Z,79.467773
2019-01-29T08:35:30.478Z,79.681396
2019-01-29T08:36:39.986Z,79.681396
2019-01-29T08:37:49.540Z,79.681396
2019-01-29T08:38:59.056Z,79.260254
2019-01-29T08:40:08.592Z,79.577637
2019-01-29T08:41:18.101Z,79.681396
2019-01-29T08:42:27.628Z,79.852295
2019-01-29T08:43:37.157Z,79.437256
2019-01-29T08:44:46.683Z,79.223633
2019-01-29T08:45:56.206Z,78.912354
2019-01-29T08:47:05.783Z,79.541016
2019-01-29T08:48:15.288Z,79.223633
2019-01-29T08:49:24.834Z,79.541016
2019-01-29T08:50:34.333Z,79.681396
2019-01-29T08:51:43.857Z,79.748535
2019-01-29T08:52:53.399Z,79.888916
2019-01-29T08:54:02.917Z,79.467773
2019-01-29T08:55:12.452Z,78.948975
2019-01-29T08:56:21.970Z,79.541016
2019-01-29T08:57:31.547Z,78.875732
2019-01-29T08:58:41.063Z,77.89917
2019-01-29T08:59:50.580Z,77.13623
2019-01-29T09:01:00.107Z,75.634766
2019-01-29T09:02:09.634Z,75.012207
2019-01-29T09:03:19.175Z,74.353027
2019-01-29T09:04:28.697Z,74.456787
2019-01-29T09:05:38.219Z,73.516846
2019-01-29T09:06:47.752Z,73.339844
2019-01-29T09:07:57.281Z,73.236084
2019-01-29T09:09:06.807Z,73.791504
2019-01-29T09:10:16.318Z,75.048828
2019-01-29T09:11:25.840Z,75.360107
2019-01-29T09:12:35.383Z,76.092529
2019-01-29T09:13:44.899Z,75.811768
2019-01-29T09:14:54.425Z,75.811768
2019-01-29T09:16:03.937Z,75.952148
2019-01-29T09:17:13.447Z,76.89209
2019-01-29T09:18:23.008Z,76.574707
2019-01-29T09:19:32.533Z,76.78833
2019-01-29T09:20:42.031Z,77.44751
2019-01-29T09:21:51.560Z,77.868652
2019-01-29T09:23:01.081Z,78.076172
2019-01-29T09:24:10.608Z,78.912354
2019-01-29T09:25:22.487Z,78.601074
2019-01-29T09:26:29.632Z,78.704834
2019-01-29T09:27:39.207Z,79.016113
2019-01-29T09:28:48.724Z,79.327393
2019-01-29T09:29:58.249Z,78.808594
2019-01-29T09:31:07.772Z,78.601074
2019-01-29T09:32:17.283Z,77.69165
2019-01-29T09:33:26.828Z,76.89209
2019-01-29T09:34:36.347Z,77.832031
2019-01-29T09:35:45.869Z,77.624512
2019-01-29T09:36:55.375Z,78.771973
2019-01-29T09:38:04.941Z,78.356934
2019-01-29T09:39:14.450Z,78.149414
2019-01-29T09:40:23.973Z,78.771973
2019-01-29T09:41:33.500Z,77.276611
2019-01-29T09:42:43.059Z,76.959229
2019-01-29T09:43:52.605Z,76.855469
2019-01-29T09:45:02.133Z,76.855469
2019-01-29T09:46:11.645Z,76.123047
2019-01-29T09:47:21.196Z,75.634766
2019-01-29T09:48:30.705Z,76.263428
2019-01-29T09:49:40.224Z,76.263428
2019-01-29T09:50:49.749Z,76.470947
2019-01-29T09:51:59.285Z,76.928711
2019-01-29T09:53:08.826Z,77.032471
2019-01-29T09:54:18.347Z,77.55127
2019-01-29T09:55:29.209Z,76.78833
2019-01-29T09:56:37.369Z,75.775146
2019-01-29T09:57:46.896Z,75.634766
2019-01-29T09:58:56.432Z,75.878906
2019-01-29T10:00:05.949Z,73.760986
2019-01-29T10:01:15.489Z,72.680664
2019-01-29T10:02:25.026Z,71.221924
2019-01-29T10:03:34.576Z,71.118164
2019-01-29T10:04:44.099Z,71.606445
2019-01-29T10:05:53.638Z,71.575928
2019-01-29T10:07:03.175Z,69.873047
2019-01-29T10:08:12.738Z,70.19043
2019-01-29T10:09:22.259Z,70.043945
2019-01-29T10:10:31.788Z,71.429443
2019-01-29T10:11:41.336Z,71.917725
2019-01-29T10:12:50.850Z,70.532227
2019-01-29T10:14:00.399Z,70.397949
2019-01-29T10:15:09.910Z,70.019531
2019-01-29T10:16:19.421Z,68.530273
2019-01-29T10:17:28.940Z,67.254639
2019-01-29T10:18:38.483Z,65.795898
2019-01-29T10:19:48.009Z,66.387939
2019-01-29T10:20:57.549Z,64.282227
2019-01-29T10:22:07.074Z,64.96582
2019-01-29T10:23:16.638Z,64.935303
2019-01-29T10:24:26.141Z,65.2771
2019-01-29T10:25:37.646Z,66.033936
2019-01-29T10:26:45.184Z,66.168213
2019-01-29T10:27:54.701Z,65.991211
2019-01-29T10:29:04.232Z,67.06543
2019-01-29T10:30:13.772Z,66.96167
2019-01-29T10:31:24.337Z,67.553711
2019-01-29T10:32:32.787Z,66.900635
2019-01-29T10:33:42.330Z,64.996338
2019-01-29T10:34:51.852Z,64.447021
2019-01-29T10:36:01.380Z,64.208984
2019-01-29T10:37:10.901Z,64.147949
2019-01-29T10:38:20.458Z,62.774658
2019-01-29T10:39:29.984Z,61.810303
2019-01-29T10:40:39.509Z,62.280273
2019-01-29T10:41:49.031Z,61.761475
2019-01-29T10:42:58.538Z,62.591553
2019-01-29T10:44:08.065Z,63.085938
2019-01-29T10:45:17.582Z,62.536621
2019-01-29T10:46:27.105Z,61.053467
2019-01-29T10:47:36.611Z,60.430908
2019-01-29T10:48:46.147Z,60.803223
2019-01-29T10:49:55.666Z,61.657715
2019-01-29T10:51:05.192Z,62.487793
2019-01-29T10:52:14.718Z,62.82959
2019-01-29T10:53:24.259Z,62.384033
2019-01-29T10:54:33.799Z,62.695312
2019-01-29T10:55:47.164Z,60.571289
2019-01-29T10:56:52.820Z,62.548828
2019-01-29T10:58:02.343Z,61.425781
2019-01-29T10:59:11.876Z,59.576416
2019-01-29T11:00:21.402Z,55.822754
2019-01-29T11:01:30.925Z,55.249023
2019-01-29T11:02:40.460Z,54.345703
2019-01-29T11:03:49.999Z,54.888916
2019-01-29T11:04:59.537Z,55.847168
2019-01-29T11:06:09.067Z,57.092285
2019-01-29T11:07:18.576Z,57.60498
2019-01-29T11:08:28.124Z,56.494141
2019-01-29T11:09:37.655Z,58.416748
2019-01-29T11:10:47.166Z,58.105469
2019-01-29T11:11:56.671Z,59.423828
2019-01-29T11:13:07.356Z,57.843018
2019-01-29T11:14:15.724Z,55.950928
2019-01-29T11:15:25.242Z,55.096436
2019-01-29T11:16:34.760Z,53.027344
2019-01-29T11:17:44.287Z,54.266357
2019-01-29T11:18:53.832Z,54.266357
2019-01-29T11:20:04.348Z,54.730225
2019-01-29T11:21:13.862Z,54.650879
2019-01-29T11:22:23.363Z,54.577637
2019-01-29T11:23:32.886Z,54.705811
2019-01-29T11:24:42.451Z,55.871582
2019-01-29T11:25:55.853Z,57.873535
2019-01-29T11:27:01.455Z,57.556152
2019-01-29T11:28:10.985Z,55.92041
2019-01-29T11:29:20.547Z,57.69043
2019-01-29T11:30:30.081Z,57.946777
2019-01-29T11:31:39.607Z,56.677246
2019-01-29T11:32:49.135Z,55.328369
2019-01-29T11:33:58.677Z,54.705811
2019-01-29T11:35:08.220Z,55.999756
2019-01-29T11:36:17.733Z,55.352783
2019-01-29T11:37:27.259Z,54.547119
2019-01-29T11:38:36.787Z,53.637695
2019-01-29T11:39:46.351Z,55.010986
2019-01-29T11:40:55.884Z,55.322266
2019-01-29T11:42:05.385Z,56.286621
2019-01-29T11:43:14.959Z,55.975342
2019-01-29T11:44:24.449Z,56.90918
2019-01-29T11:45:33.977Z,57.324219
2019-01-29T11:46:43.522Z,56.5979
2019-01-29T11:47:53.044Z,56.054688
2019-01-29T11:49:02.843Z,57.116699
2019-01-29T11:50:12.100Z,57.635498
2019-01-29T11:51:21.619Z,58.36792
2019-01-29T11:52:31.139Z,57.458496
2019-01-29T11:53:40.661Z,57.873535
2019-01-29T11:54:50.509Z,57.507324
2019-01-29T11:56:04.520Z,55.377197
2019-01-29T11:57:10.246Z,56.365967
2019-01-29T11:58:19.773Z,54.23584
2019-01-29T11:59:29.305Z,52.453613
2019-01-29T12:00:38.818Z,51.806641
2019-01-29T12:01:48.342Z,50.32959
2019-01-29T12:02:57.866Z,51.757812
2019-01-29T12:04:07.410Z,50.311279
2019-01-29T12:05:16.940Z,50.512695
2019-01-29T12:06:26.467Z,49.505615
2019-01-29T12:07:36.004Z,50.12207
2019-01-29T12:08:45.536Z,50.378418
2019-01-29T12:09:56.431Z,50.842285
2019-01-29T12:11:04.597Z,51.544189
2019-01-29T12:12:14.120Z,49.835205
2019-01-29T12:13:23.647Z,48.443604
2019-01-29T12:14:34.261Z,48.712158
2019-01-29T12:15:43.713Z,47.76001
2019-01-29T12:16:53.237Z,45.794678
2019-01-29T12:18:02.772Z,47.491455
2019-01-29T12:19:12.295Z,49.79248
2019-01-29T12:20:21.811Z,49.316406
2019-01-29T12:21:31.363Z,49.780273
2019-01-29T12:22:40.893Z,50.842285
2019-01-29T12:23:50.405Z,50.653076
2019-01-29T12:24:59.953Z,51.171875
2019-01-29T12:26:13.106Z,51.922607
2019-01-29T12:27:18.955Z,52.441406
2019-01-29T12:28:28.481Z,52.545166
2019-01-29T12:29:38.046Z,52.050781
2019-01-29T12:30:47.580Z,51.971436
2019-01-29T12:31:57.107Z,51.867676
2019-01-29T12:33:06.640Z,50.976562
2019-01-29T12:34:16.196Z,51.477051
2019-01-29T12:35:25.724Z,51.68457
2019-01-29T12:36:35.239Z,52.386475
2019-01-29T12:37:44.781Z,51.843262
2019-01-29T12:38:54.302Z,51.403809
2019-01-29T12:40:03.847Z,50.57373
2019-01-29T12:41:13.359Z,50.390625
2019-01-29T12:42:22.882Z,50.494385
2019-01-29T12:43:32.409Z,51.116943
2019-01-29T12:44:41.981Z,50.286865
2019-01-29T12:45:51.502Z,51.843262
2019-01-29T12:47:01.032Z,51.763916
2019-01-29T12:48:10.559Z,51.971436
2019-01-29T12:49:20.119Z,51.660156
2019-01-29T12:50:29.624Z,51.971436
2019-01-29T12:51:39.358Z,50.415039
2019-01-29T12:52:48.809Z,49.267578
2019-01-29T12:53:58.327Z,51.037598
2019-01-29T12:55:07.855Z,50.933838
2019-01-29T12:56:21.473Z,50.958252
2019-01-29T12:57:26.877Z,51.269531
2019-01-29T12:58:36.409Z,50.750732
2019-01-29T12:59:45.964Z,50.311279
2019-01-29T13:00:56.489Z,50.518799
2019-01-29T13:02:06.026Z,51.556396
2019-01-29T13:03:15.549Z,50.12207
2019-01-29T13:04:25.122Z,50.830078
2019-01-29T13:05:34.643Z,49.475098
2019-01-29T13:06:44.173Z,48.852539
2019-01-29T13:07:53.688Z,48.956299
2019-01-29T13:09:03.220Z,49.163818
2019-01-29T13:10:12.748Z,49.456787
2019-01-29T13:11:22.299Z,46.673584
2019-01-29T13:12:31.797Z,48.413086
2019-01-29T13:13:41.331Z,47.479248
2019-01-29T13:14:50.884Z,48.620605
2019-01-29T13:16:00.420Z,48.498535